Time;durP1;ratioP1;P1;durP2;ratioP2;P2;SDS_P1;SDS_P2;PMS_P1;PMS_P2;Temp;Humidity;BMP_temperature;BMP_pressure;BME280_temperature;BME280_humidity;BME280_pressure;Samples;Min_cycle;Max_cycle;Signal;HPM_P1;HPM_P2
2022/12/23 00:00:04;;;;;;;3.67;2.83;;;16.60;62.60;17.60;99458.00;;;;4990139;28;20185;-45
2022/12/23 00:02:29;;;;;;;4.57;3.07;;;16.60;62.70;17.60;99554.00;;;;4989595;28;20202;-45
2022/12/23 00:04:55;;;;;;;3.63;2.87;;;16.50;62.50;17.50;99556.00;;;;4989790;28;20221;-46
2022/12/23 00:07:21;;;;;;;3.87;3.00;;;16.50;62.50;17.50;99574.00;;;;4990732;28;20175;-46
2022/12/23 00:09:47;;;;;;;3.87;2.80;;;16.60;62.70;17.30;99567.00;;;;4989989;28;20202;-46
2022/12/23 00:15:05;;;;;;;4.00;2.80;;;16.50;62.60;17.50;99568.00;;;;4989995;28;20687;-44
2022/12/23 00:17:41;;;;;;;4.43;3.40;;;16.50;62.80;17.50;99576.00;;;;4989209;28;20160;-45
2022/12/23 00:20:08;;;;;;;4.17;2.90;;;16.50;62.70;17.50;99442.00;;;;4989244;28;20596;-44
2022/12/23 00:25:18;;;;;;;3.10;2.77;;;16.50;62.70;17.50;99561.00;;;;4989393;28;20206;-44
2022/12/23 00:28:00;;;;;;;4.20;3.07;;;16.50;62.70;17.50;99502.00;;;;4989043;28;20521;-44
2022/12/23 00:30:26;;;;;;;4.23;2.90;;;16.50;62.70;17.50;99571.00;;;;4989757;28;20183;-44
2022/12/23 00:32:52;;;;;;;3.77;2.90;;;16.50;62.90;17.50;99572.00;;;;4988645;28;20184;-44
2022/12/23 00:35:18;;;;;;;4.17;2.73;;;16.40;62.80;17.50;99501.00;;;;4989916;28;20244;-44
2022/12/23 00:37:43;;;;;;;3.43;2.80;;;16.40;62.70;17.50;99484.00;;;;4992046;28;20181;-45
2022/12/23 00:42:56;;;;;;;4.27;3.00;;;16.40;62.80;17.50;99575.00;;;;4995255;28;20208;-44
2022/12/23 00:45:22;;;;;;;4.30;2.90;;;16.40;62.90;17.50;99511.00;;;;4993021;28;20723;-45
2022/12/23 00:50:35;;;;;;;4.20;2.80;;;16.40;62.80;17.40;99498.00;;;;4989272;28;20545;-44
2022/12/23 00:53:00;;;;;;;3.30;2.80;;;16.40;62.90;17.40;99564.00;;;;4988425;28;20186;-44
2022/12/23 00:55:26;;;;;;;4.63;2.90;;;16.40;62.70;17.40;99586.00;;;;4988842;28;20176;-45
2022/12/23 00:57:52;;;;;;;3.17;2.60;;;16.40;62.70;17.40;99587.00;;;;4972628;28;20181;-45
2022/12/23 01:00:18;;;;;;;3.50;2.67;;;16.40;62.70;17.40;99577.00;;;;5008964;28;20186;-44
2022/12/23 01:05:37;;;;;;;3.60;2.50;;;16.40;62.80;17.40;99512.00;;;;5028578;28;20294;-45
2022/12/23 01:08:10;;;;;;;4.27;2.70;;;16.40;62.80;17.40;99516.00;;;;5028540;28;20191;-46
2022/12/23 01:10:37;;;;;;;3.67;2.70;;;16.40;62.90;17.40;99510.00;;;;5011410;28;20314;-45
2022/12/23 01:13:03;;;;;;;4.77;2.97;;;16.40;62.90;17.40;99593.00;;;;5027773;28;20203;-44
2022/12/23 01:15:29;;;;;;;3.33;2.80;;;16.30;62.70;17.40;99583.00;;;;5027657;28;20269;-45
2022/12/23 01:17:55;;;;;;;4.17;3.00;;;16.30;62.60;17.40;99595.00;;;;5011760;28;20222;-45
2022/12/23 01:20:20;;;;;;;4.33;2.57;;;16.40;62.70;17.40;99605.00;;;;5027528;28;20175;-44
2022/12/23 01:22:46;;;;;;;4.07;2.73;;;16.30;62.70;17.40;99616.00;;;;5027581;28;20171;-44
2022/12/23 01:25:12;;;;;;;3.37;2.67;;;16.40;62.70;17.40;99592.00;;;;5011259;28;20267;-44
2022/12/23 01:27:38;;;;;;;3.57;2.87;;;16.30;62.70;17.40;99600.00;;;;5027507;28;20624;-44
2022/12/23 01:30:04;;;;;;;4.40;2.70;;;16.30;62.70;17.40;99607.00;;;;5027987;28;20199;-44
2022/12/23 01:32:30;;;;;;;3.83;2.83;;;16.30;62.80;17.40;99616.00;;;;5028325;28;20187;-45
2022/12/23 01:34:56;;;;;;;5.70;2.97;;;16.30;62.70;17.40;99612.00;;;;5029376;28;20190;-45
2022/12/23 01:37:21;;;;;;;3.73;2.60;;;16.30;62.70;17.30;99622.00;;;;5027653;28;20167;-44
2022/12/23 01:39:47;;;;;;;4.47;2.87;;;16.30;62.80;17.40;99629.00;;;;5027814;28;20172;-44
2022/12/23 01:45:25;;;;;;;3.90;2.47;;;16.30;62.90;17.30;99621.00;;;;5027812;28;20157;-46
2022/12/23 01:48:08;;;;;;;2.87;2.57;;;16.30;62.90;17.30;99614.00;;;;5013088;28;20194;-45
2022/12/23 01:50:34;;;;;;;2.77;2.40;;;16.30;62.90;17.30;99629.00;;;;5027816;28;20612;-43
2022/12/23 01:53:15;;;;;;;3.03;2.50;;;16.30;62.90;17.30;99636.00;;;;5027002;28;20267;-45
2022/12/23 01:55:58;;;;;;;3.27;2.70;;;16.30;63.00;17.30;99561.00;;;;5028803;28;20333;-44
2022/12/23 01:58:33;;;;;;;3.40;2.57;;;16.30;63.00;17.30;99555.00;;;;5027220;28;20202;-44
2022/12/23 02:03:43;;;;;;;5.87;2.70;;;16.20;63.00;17.20;99639.00;;;;5027350;28;20159;-44
2022/12/23 02:09:15;;;;;;;3.53;2.40;;;16.20;63.00;17.30;99649.00;;;;5035694;28;20203;-44
2022/12/23 02:12:25;;;;;;;3.10;2.60;;;16.20;63.20;17.30;99639.00;;;;5032168;28;20597;-44
2022/12/23 02:18:35;;;;;;;3.33;2.60;;;16.20;63.30;17.20;99636.00;;;;5032262;28;20313;-44
2022/12/23 02:21:04;;;;;;;2.90;2.27;;;16.20;63.30;17.20;99647.00;;;;5030909;28;20197;-44
2022/12/23 02:24:13;;;;;;;3.17;2.30;;;16.20;63.50;17.20;99641.00;;;;5030430;28;20523;-44
2022/12/23 02:27:15;;;;;;;3.37;2.60;;;16.20;63.50;17.20;99566.00;;;;5030692;28;20256;-45
2022/12/23 02:30:37;;;;;;;3.50;2.50;;;16.10;63.50;17.10;99661.00;;;;5026779;28;20692;-44
2022/12/23 02:33:31;;;;;;;3.60;2.50;;;16.10;63.60;17.10;99660.00;;;;4999764;28;20187;-45
2022/12/23 02:36:24;;;;;;;4.13;2.40;;;16.20;63.80;17.10;99669.00;;;;5002018;28;20176;-44
2022/12/23 02:39:34;;;;;;;3.47;2.40;;;16.10;63.80;17.10;99673.00;;;;5033133;28;20183;-44
2022/12/23 02:42:12;;;;;;;3.13;2.27;;;16.10;63.90;17.10;99658.00;;;;5014363;28;20629;-44
2022/12/23 02:45:00;;;;;;;2.70;2.10;;;16.10;64.60;17.10;99635.00;;;;5030884;28;20214;-45
2022/12/23 02:47:34;;;;;;;2.27;2.07;;;16.10;63.80;17.10;99621.00;;;;5014403;28;20191;-44
2022/12/23 02:50:05;;;;;;;3.20;2.60;;;16.10;63.90;17.10;99689.00;;;;5014113;28;20177;-45
2022/12/23 02:52:32;;;;;;;3.03;2.40;;;16.10;63.80;17.10;99684.00;;;;5030585;28;20215;-46
2022/12/23 02:55:02;;;;;;;2.47;2.27;;;16.10;63.90;17.10;99603.00;;;;5030971;28;20159;-44
2022/12/23 02:57:32;;;;;;;4.37;2.60;;;16.10;63.90;17.10;99593.00;;;;5030505;28;20168;-44
2022/12/23 02:59:58;;;;;;;2.97;2.10;;;16.10;64.10;17.10;99673.00;;;;5030701;28;20373;-44
2022/12/23 03:02:23;;;;;;;2.60;2.17;;;16.00;64.00;17.10;99688.00;;;;5029261;28;20300;-44
2022/12/23 03:04:49;;;;;;;3.20;2.50;;;16.00;64.00;17.10;99685.00;;;;5030468;28;20198;-45
2022/12/23 03:07:25;;;;;;;2.93;2.20;;;16.00;64.30;17.00;99681.00;;;;5030256;28;20171;-45
2022/12/23 03:10:01;;;;;;;2.77;2.30;;;16.00;64.30;17.00;99693.00;;;;5030034;28;20381;-45
2022/12/23 03:12:34;;;;;;;2.73;2.20;;;16.10;64.50;17.00;99703.00;;;;5013280;28;20260;-45
2022/12/23 03:15:22;;;;;;;2.73;2.20;;;16.00;64.40;17.00;99705.00;;;;5030328;28;20167;-44
2022/12/23 03:18:17;;;;;;;3.30;2.10;;;16.00;64.30;17.00;99714.00;;;;5015395;28;20183;-45
2022/12/23 03:21:07;;;;;;;2.67;2.20;;;16.00;64.30;17.00;99640.00;;;;5029888;28;20221;-44
2022/12/23 03:24:14;;;;;;;3.13;2.37;;;16.00;64.30;17.00;99723.00;;;;5029631;28;20347;-45
2022/12/23 03:26:45;;;;;;;2.87;2.13;;;16.00;64.50;17.00;99728.00;;;;5029682;28;20206;-45
2022/12/23 03:29:23;;;;;;;3.03;2.10;;;16.00;64.40;17.00;99739.00;;;;5030644;28;20207;-45
2022/12/23 03:31:49;;;;;;;4.30;2.40;;;16.00;64.40;17.00;99733.00;;;;5013438;28;20210;-44
2022/12/23 03:34:18;;;;;;;2.87;2.30;;;16.00;64.40;17.00;99732.00;;;;5013646;28;20178;-45
2022/12/23 03:36:51;;;;;;;3.40;2.57;;;16.00;65.30;17.00;99616.00;;;;5030072;28;20251;-44
2022/12/23 03:39:22;;;;;;;3.60;2.43;;;15.90;64.40;17.00;99732.00;;;;5029595;28;20188;-45
2022/12/23 03:41:55;;;;;;;3.13;2.40;;;16.00;64.50;17.00;99715.00;;;;5030120;28;20202;-44
2022/12/23 03:44:28;;;;;;;2.87;2.40;;;15.90;64.50;17.00;99624.00;;;;5029920;28;20181;-44
2022/12/23 03:47:23;;;;;;;3.73;2.60;;;15.90;64.40;17.00;99721.00;;;;5013366;28;20278;-44
2022/12/23 03:50:13;;;;;;;3.30;2.60;;;15.90;64.50;16.90;99734.00;;;;5029548;28;20156;-44
2022/12/23 03:52:44;;;;;;;2.93;2.30;;;15.90;64.80;16.90;99733.00;;;;5029606;28;20198;-45
2022/12/23 03:55:16;;;;;;;5.50;2.70;;;15.90;64.80;16.90;99742.00;;;;5012650;28;20178;-44
2022/12/23 03:57:57;;;;;;;2.80;2.33;;;15.90;64.80;16.90;99715.00;;;;5029055;28;20172;-46
2022/12/23 04:00:22;;;;;;;3.40;2.40;;;15.90;64.80;16.90;99734.00;;;;5029382;28;20164;-45
2022/12/23 04:03:11;;;;;;;2.80;2.30;;;15.90;64.70;17.00;99665.00;;;;5029089;28;20167;-45
2022/12/23 04:05:39;;;;;;;2.90;2.37;;;15.90;64.70;16.90;99730.00;;;;5028671;28;20155;-45
2022/12/23 04:08:29;;;;;;;4.53;2.50;;;15.90;64.90;16.90;99669.00;;;;5029078;28;20253;-44
2022/12/23 04:10:55;;;;;;;3.07;2.50;;;15.90;65.00;16.90;99716.00;;;;5028710;28;20210;-45
2022/12/23 04:13:20;;;;;;;3.43;2.60;;;15.90;64.90;16.60;99717.00;;;;5012623;28;20217;-49
2022/12/23 04:15:46;;;;;;;2.97;2.27;;;15.80;64.80;16.90;99722.00;;;;5025582;28;20180;-44
2022/12/23 04:18:12;;;;;;;2.97;2.60;;;15.90;64.90;16.90;99655.00;;;;4992482;28;20191;-45
2022/12/23 04:20:38;;;;;;;4.90;2.47;;;15.90;64.90;17.00;99720.00;;;;5008998;28;20194;-46
2022/12/23 04:23:03;;;;;;;4.83;2.70;;;15.90;64.90;17.00;99686.00;;;;5009004;28;20171;-45
2022/12/23 04:25:29;;;;;;;5.13;2.60;;;15.90;64.90;17.00;99727.00;;;;4992665;28;20245;-46
2022/12/23 04:27:55;;;;;;;3.77;2.57;;;15.90;64.90;17.00;99665.00;;;;5009012;28;20208;-44
2022/12/23 04:30:21;;;;;;;3.80;2.70;;;15.90;64.90;17.00;99712.00;;;;5009216;28;20249;-45
2022/12/23 04:32:46;;;;;;;4.10;2.80;;;15.80;64.90;16.90;99719.00;;;;4991375;28;20582;-44
2022/12/23 04:35:12;;;;;;;5.50;3.30;;;15.70;65.40;16.60;99635.00;;;;4992431;28;20172;-44
2022/12/23 04:37:38;;;;;;;4.60;2.80;;;15.60;66.00;16.90;99720.00;;;;5009108;28;20226;-44
2022/12/23 04:40:04;;;;;;;5.10;3.00;;;15.50;66.40;16.80;99717.00;;;;4993089;28;20187;-44
2022/12/23 04:42:30;;;;;;;4.13;2.90;;;15.50;66.40;16.80;99716.00;;;;4975368;28;20254;-43
2022/12/23 04:44:56;;;;;;;5.43;2.90;;;15.40;66.50;16.80;99721.00;;;;5008936;28;20579;-44
2022/12/23 04:47:22;;;;;;;5.67;2.83;;;15.50;66.60;16.20;99635.00;;;;4992773;28;20164;-45
2022/12/23 04:49:47;;;;;;;3.73;2.60;;;15.40;66.60;16.70;99720.00;;;;5009055;28;20204;-45
2022/12/23 04:52:13;;;;;;;3.03;2.70;;;15.40;66.60;16.70;99722.00;;;;5013964;28;20571;-44
2022/12/23 04:54:39;;;;;;;4.77;3.00;;;15.40;66.60;16.70;99727.00;;;;5016719;28;20563;-44
2022/12/23 04:57:04;;;;;;;4.83;2.80;;;15.40;66.60;16.70;99647.00;;;;5018136;28;20179;-44
2022/12/23 04:59:30;;;;;;;4.40;2.83;;;15.40;66.50;16.60;99712.00;;;;5001624;28;20171;-46
2022/12/23 05:01:56;;;;;;;4.23;2.70;;;15.40;66.50;16.60;99707.00;;;;5010019;28;20188;-44
2022/12/23 05:04:22;;;;;;;5.50;3.00;;;15.40;66.50;16.60;99735.00;;;;5009336;28;20650;-43
2022/12/23 05:06:48;;;;;;;4.73;2.70;;;15.30;66.50;16.60;99732.00;;;;4993125;28;20206;-45
2022/12/23 05:09:14;;;;;;;5.80;3.03;;;15.30;66.50;16.60;99735.00;;;;4989407;28;20227;-43
2022/12/23 05:11:40;;;;;;;4.73;2.90;;;15.30;66.60;16.60;99655.00;;;;5005214;28;20207;-44
2022/12/23 05:14:05;;;;;;;4.43;2.70;;;15.30;66.70;16.60;99744.00;;;;4972266;28;20173;-44
2022/12/23 05:16:31;;;;;;;2.80;2.20;;;15.30;66.70;16.50;99752.00;;;;4988844;28;20195;-43
2022/12/23 05:18:57;;;;;;;3.80;2.30;;;15.30;66.80;16.50;99661.00;;;;4988829;28;20676;-43
2022/12/23 05:21:23;;;;;;;3.40;2.50;;;15.30;66.90;16.50;99753.00;;;;4988010;28;20196;-44
2022/12/23 05:23:48;;;;;;;6.83;3.10;;;15.30;66.80;16.50;99758.00;;;;4989175;28;20180;-46
2022/12/23 05:26:14;;;;;;;4.30;2.47;;;15.20;66.80;16.50;99761.00;;;;4988258;28;20648;-43
2022/12/23 05:28:41;;;;;;;4.10;2.60;;;15.20;66.80;16.50;99764.00;;;;5005302;28;20200;-44
2022/12/23 05:31:07;;;;;;;3.70;2.27;;;15.20;66.60;16.50;99739.00;;;;4989451;28;20176;-43
2022/12/23 05:33:33;;;;;;;3.77;2.40;;;15.20;66.70;16.50;99670.00;;;;4988452;28;20390;-44
2022/12/23 05:35:59;;;;;;;8.00;2.60;;;15.20;66.90;16.50;99687.00;;;;4987973;28;20168;-45
2022/12/23 05:38:25;;;;;;;4.20;2.17;;;15.10;66.80;16.50;99673.00;;;;4975028;28;20177;-45
2022/12/23 05:40:51;;;;;;;4.90;2.40;;;15.20;66.90;16.50;99756.00;;;;4998113;28;20231;-43
2022/12/23 05:43:17;;;;;;;4.50;2.50;;;15.10;66.80;16.10;99653.00;;;;4995815;28;20255;-43
2022/12/23 05:45:43;;;;;;;6.03;2.30;;;15.10;66.80;16.40;99677.00;;;;4991742;28;20173;-44
2022/12/23 05:48:09;;;;;;;5.40;2.53;;;15.10;66.80;16.40;99734.00;;;;4972623;28;20543;-43
2022/12/23 05:50:36;;;;;;;2.87;2.17;;;15.10;66.80;16.40;99746.00;;;;4988654;28;20171;-44
2022/12/23 05:53:02;;;;;;;2.97;2.17;;;15.10;66.80;16.40;99711.00;;;;4988078;28;20172;-43
2022/12/23 05:55:28;;;;;;;4.57;2.00;;;15.10;66.70;16.40;99766.00;;;;4988296;28;20175;-43
2022/12/23 05:57:53;;;;;;;3.93;1.87;;;15.20;66.80;16.40;99697.00;;;;4987899;28;20173;-43
2022/12/23 06:00:20;;;;;;;4.43;2.17;;;15.20;66.40;16.40;99775.00;;;;4988151;28;20172;-44
2022/12/23 06:02:45;;;;;;;3.00;2.10;;;15.20;66.40;16.50;99781.00;;;;4987769;28;20176;-44
2022/12/23 06:05:11;;;;;;;4.40;2.30;;;15.20;66.20;16.40;99775.00;;;;4988190;28;20528;-44
2022/12/23 06:07:37;;;;;;;3.37;2.17;;;15.20;66.10;16.40;99789.00;;;;4988670;28;20649;-44
2022/12/23 06:10:05;;;;;;;4.67;2.00;;;15.30;66.20;16.40;99775.00;;;;4971614;28;20395;-44
2022/12/23 06:12:31;;;;;;;3.27;2.17;;;15.30;66.30;16.50;99786.00;;;;4971459;28;20192;-44
2022/12/23 06:14:57;;;;;;;4.40;2.10;;;15.30;66.20;16.50;99784.00;;;;4987520;28;20168;-44
2022/12/23 06:17:22;;;;;;;2.73;2.10;;;15.30;66.90;16.50;99792.00;;;;4971830;28;20176;-43
2022/12/23 06:19:48;;;;;;;3.80;2.40;;;15.30;66.00;16.50;99707.00;;;;4987566;28;20187;-44
2022/12/23 06:22:14;;;;;;;4.57;2.30;;;15.30;66.00;16.50;99786.00;;;;4987838;28;20232;-45
2022/12/23 06:24:40;;;;;;;3.30;2.30;;;15.30;66.00;16.50;99730.00;;;;4987734;28;20173;-43
2022/12/23 06:27:06;;;;;;;4.73;2.23;;;15.30;65.90;16.50;99782.00;;;;4987582;28;20168;-44
2022/12/23 06:29:31;;;;;;;4.23;2.17;;;15.30;65.80;16.50;99782.00;;;;4988092;28;20570;-44
2022/12/23 06:31:57;;;;;;;3.53;2.20;;;15.30;65.80;16.50;99770.00;;;;4970589;28;20192;-45
2022/12/23 06:34:23;;;;;;;4.67;2.20;;;15.40;65.80;16.50;99778.00;;;;4971442;28;20260;-44
2022/12/23 06:36:49;;;;;;;2.83;2.13;;;15.40;65.80;16.50;99777.00;;;;4971628;28;20172;-45
2022/12/23 06:39:14;;;;;;;3.67;2.30;;;15.40;65.80;16.50;99776.00;;;;4987715;28;20176;-44
2022/12/23 06:41:40;;;;;;;3.37;2.10;;;15.30;65.60;16.50;99775.00;;;;4987040;28;20739;-44
2022/12/23 06:44:06;;;;;;;4.30;2.40;;;15.40;65.80;16.50;99759.00;;;;4988045;28;20173;-44
2022/12/23 06:46:32;;;;;;;2.43;2.10;;;15.30;65.70;16.50;99688.00;;;;4987679;28;20175;-44
2022/12/23 06:48:57;;;;;;;3.63;2.13;;;15.40;65.60;16.50;99701.00;;;;4971423;28;20204;-45
2022/12/23 06:51:23;;;;;;;3.20;2.27;;;15.30;65.60;16.50;99766.00;;;;4987537;28;20199;-43
2022/12/23 06:53:49;;;;;;;3.40;2.00;;;15.30;65.60;16.50;99756.00;;;;4987551;28;20176;-44
2022/12/23 06:56:14;;;;;;;3.60;2.30;;;15.30;65.50;16.50;99762.00;;;;4991070;28;20172;-44
2022/12/23 06:58:40;;;;;;;3.40;2.40;;;15.30;65.40;16.50;99776.00;;;;4991103;28;20176;-44
2022/12/23 07:01:06;;;;;;;2.70;2.00;;;15.30;65.30;16.50;99770.00;;;;4990967;28;20196;-43
2022/12/23 07:03:31;;;;;;;3.80;2.17;;;15.40;65.40;16.50;99769.00;;;;4990448;28;20177;-44
2022/12/23 07:05:57;;;;;;;3.27;2.13;;;15.40;65.50;16.50;99771.00;;;;4991311;28;20176;-44
2022/12/23 07:08:23;;;;;;;4.37;2.20;;;15.40;65.50;16.50;99767.00;;;;4991410;28;20217;-44
2022/12/23 07:10:49;;;;;;;2.93;2.30;;;15.30;65.30;16.50;99770.00;;;;4990919;28;20260;-44
2022/12/23 07:13:15;;;;;;;2.50;2.20;;;15.40;65.50;16.50;99771.00;;;;4990753;28;20161;-45
2022/12/23 07:15:41;;;;;;;2.87;2.10;;;15.30;65.30;16.50;99783.00;;;;4990075;28;20611;-45
2022/12/23 07:18:06;;;;;;;3.47;2.30;;;15.40;65.30;16.50;99783.00;;;;4990950;28;20219;-44
2022/12/23 07:20:32;;;;;;;2.80;2.27;;;15.40;65.50;16.20;99807.00;;;;4990282;28;20204;-44
2022/12/23 07:22:58;;;;;;;3.13;2.37;;;15.30;65.30;16.40;99822.00;;;;4974189;28;20180;-43
2022/12/23 07:25:24;;;;;;;2.50;2.10;;;15.30;65.40;16.10;99745.00;;;;4991650;28;20553;-45
2022/12/23 07:27:54;;;;;;;3.00;2.30;;;15.30;65.30;16.40;99823.00;;;;4974744;28;20180;-44
2022/12/23 07:30:20;;;;;;;2.47;2.27;;;15.30;65.40;16.40;99840.00;;;;4990417;28;20168;-45
2022/12/23 07:32:49;;;;;;;3.20;2.20;;;15.30;65.40;16.40;99806.00;;;;4989948;28;20164;-44
2022/12/23 07:35:15;;;;;;;4.17;2.53;;;15.30;65.40;16.40;99840.00;;;;4990679;28;20247;-45
2022/12/23 07:37:41;;;;;;;3.27;2.50;;;15.30;65.40;16.40;99827.00;;;;4990431;28;20264;-45
2022/12/23 07:40:08;;;;;;;3.40;2.13;;;15.30;65.40;16.40;99831.00;;;;4974644;28;20248;-44
2022/12/23 07:42:34;;;;;;;2.77;2.20;;;15.30;65.50;16.10;99828.00;;;;4989412;28;20259;-44
2022/12/23 07:44:59;;;;;;;2.87;2.10;;;15.20;65.40;16.40;99843.00;;;;4974038;28;20442;-44
2022/12/23 07:47:25;;;;;;;2.63;2.10;;;15.30;65.40;16.40;99829.00;;;;4990271;28;20521;-44
2022/12/23 07:49:51;;;;;;;3.00;2.40;;;15.30;65.30;16.40;99842.00;;;;4990500;28;20818;-44
2022/12/23 07:52:17;;;;;;;3.33;2.10;;;15.20;65.30;16.40;99847.00;;;;4974025;28;20677;-44
2022/12/23 07:54:42;;;;;;;2.90;2.30;;;15.30;65.40;16.40;99848.00;;;;4989406;28;20303;-44
2022/12/23 07:57:08;;;;;;;3.20;2.43;;;15.30;65.50;16.40;99854.00;;;;4990475;28;20427;-44
2022/12/23 07:59:34;;;;;;;3.23;2.50;;;15.20;65.30;16.40;99851.00;;;;4990234;28;20989;-43
2022/12/23 08:01:59;;;;;;;4.00;2.67;;;15.20;65.30;16.30;99766.00;;;;4989866;28;20752;-43
2022/12/23 08:04:25;;;;;;;3.53;2.40;;;15.30;66.20;16.30;99758.00;;;;4973646;28;20220;-44
2022/12/23 08:06:51;;;;;;;3.07;2.40;;;15.30;65.30;16.40;99846.00;;;;4989523;28;20676;-44
2022/12/23 08:09:16;;;;;;;3.40;2.20;;;15.30;65.30;16.30;99832.00;;;;4989457;28;20234;-44
2022/12/23 08:11:43;;;;;;;2.90;2.20;;;15.20;65.20;16.40;99832.00;;;;5005383;28;20199;-45
2022/12/23 08:14:08;;;;;;;3.83;2.30;;;15.20;65.20;16.40;99827.00;;;;4990170;28;20164;-44
2022/12/23 08:16:34;;;;;;;3.03;2.30;;;15.30;65.20;16.40;99749.00;;;;4973522;28;20612;-45
2022/12/23 08:19:00;;;;;;;2.90;2.10;;;15.30;65.10;16.40;99762.00;;;;4989985;28;20822;-44
2022/12/23 08:21:26;;;;;;;2.30;2.00;;;15.30;65.20;16.40;99824.00;;;;4988496;28;20330;-44
2022/12/23 08:23:51;;;;;;;2.97;2.23;;;15.30;65.20;16.40;99830.00;;;;5007202;28;20189;-45
2022/12/23 08:26:20;;;;;;;3.00;2.30;;;15.30;65.00;16.40;99823.00;;;;5029655;28;20167;-44
2022/12/23 08:28:46;;;;;;;2.50;2.10;;;15.30;64.90;16.40;99818.00;;;;5028988;28;20187;-43
2022/12/23 08:31:27;;;;;;;2.20;2.00;;;15.30;64.70;16.40;99734.00;;;;5028179;28;20969;-44
2022/12/23 08:33:55;;;;;;;3.73;2.40;;;15.30;65.00;16.40;99743.00;;;;5029441;28;20647;-45
2022/12/23 08:36:27;;;;;;;3.10;2.30;;;15.40;65.30;16.50;99707.00;;;;5002882;28;20192;-44
2022/12/23 08:38:53;;;;;;;3.10;2.20;;;15.60;65.30;16.30;99725.00;;;;4992720;28;20571;-46
2022/12/23 08:41:23;;;;;;;4.47;2.03;;;15.60;65.00;16.60;99728.00;;;;5008143;28;20192;-44
2022/12/23 08:43:49;;;;;;;3.93;2.40;;;15.80;64.90;16.60;99722.00;;;;4995791;28;20533;-43
2022/12/23 08:46:15;;;;;;;6.43;2.20;;;15.90;64.80;16.70;99805.00;;;;5008512;28;20171;-44
2022/12/23 08:48:40;;;;;;;2.47;1.93;;;16.00;64.50;16.80;99802.00;;;;5009884;28;20207;-44
2022/12/23 08:51:09;;;;;;;3.30;1.80;;;16.20;64.30;16.90;99764.00;;;;5008323;28;20191;-43
2022/12/23 08:53:35;;;;;;;6.10;2.20;;;16.30;64.70;16.90;99821.00;;;;4991961;28;20226;-44
2022/12/23 08:56:08;;;;;;;3.47;2.10;;;16.50;63.80;17.00;99794.00;;;;5008348;28;20258;-45
2022/12/23 08:58:39;;;;;;;3.77;2.07;;;16.60;63.50;17.10;99721.00;;;;5008302;28;20762;-45
2022/12/23 09:01:06;;;;;;;3.63;1.73;;;16.90;63.40;17.30;99743.00;;;;4991318;28;20219;-45
2022/12/23 09:03:32;;;;;;;2.00;1.80;;;17.00;63.10;17.40;99807.00;;;;5008140;28;20188;-45
2022/12/23 09:05:57;;;;;;;2.03;1.80;;;17.20;62.90;17.50;99830.00;;;;5008049;28;20171;-44
2022/12/23 09:08:23;;;;;;;2.80;2.00;;;17.30;62.60;17.40;99819.00;;;;5009495;28;20208;-43
2022/12/23 09:10:49;;;;;;;1.60;1.50;;;17.40;62.30;17.80;99749.00;;;;5000644;28;20197;-44
2022/12/23 09:13:15;;;;;;;2.17;1.60;;;17.60;62.10;17.90;99840.00;;;;5015804;28;20771;-45
2022/12/23 09:15:44;;;;;;;1.60;1.40;;;17.70;61.90;18.00;99828.00;;;;5014874;28;20646;-43
2022/12/23 09:18:10;;;;;;;2.87;1.70;;;17.80;61.70;18.10;99738.00;;;;5007962;28;20220;-45
2022/12/23 09:20:36;;;;;;;2.30;1.90;;;18.00;61.80;18.20;99732.00;;;;5007637;28;20220;-46
2022/12/23 09:23:02;;;;;;;2.17;1.90;;;18.10;61.50;18.30;99823.00;;;;4990878;28;20189;-46
2022/12/23 09:25:28;;;;;;;2.07;1.87;;;18.20;61.30;18.50;99821.00;;;;4992177;28;20217;-45
2022/12/23 09:27:54;;;;;;;1.73;1.53;;;18.30;61.30;18.50;99746.00;;;;5007821;28;20207;-44
2022/12/23 09:30:19;;;;;;;2.53;1.53;;;18.40;61.20;18.60;99818.00;;;;5007565;28;20177;-44
2022/12/23 09:32:45;;;;;;;2.60;1.87;;;18.40;61.20;18.70;99724.00;;;;5007264;28;20221;-44
2022/12/23 09:35:11;;;;;;;3.83;1.90;;;18.50;61.70;18.80;99811.00;;;;5007696;28;20209;-43
2022/12/23 09:37:36;;;;;;;8.57;2.20;;;18.50;61.90;18.80;99793.00;;;;5009024;28;20163;-43
2022/12/23 09:40:03;;;;;;;10.00;2.57;;;18.40;62.00;18.80;99788.00;;;;5008304;28;20633;-46
2022/12/23 09:43:27;;;;;;;6.63;2.40;;;18.40;62.30;18.90;99721.00;;;;5008798;28;20278;-45
2022/12/23 09:46:15;;;;;;;9.40;2.60;;;18.40;62.40;18.90;99790.00;;;;4989777;28;20213;-45
2022/12/23 09:48:47;;;;;;;6.10;2.63;;;18.40;62.80;18.90;99768.00;;;;5008633;28;20194;-44
2022/12/23 09:51:12;;;;;;;6.20;2.30;;;18.40;62.70;18.90;99775.00;;;;5006707;28;20188;-44
2022/12/23 09:54:08;;;;;;;7.77;2.40;;;18.40;62.70;19.00;99769.00;;;;5007724;28;20270;-44
2022/12/23 09:56:59;;;;;;;4.17;2.23;;;18.40;62.50;19.00;99779.00;;;;5003661;28;20178;-44
2022/12/23 09:59:43;;;;;;;4.83;2.43;;;18.30;62.60;18.90;99769.00;;;;4991465;28;20446;-44
2022/12/23 10:02:37;;;;;;;5.43;2.10;;;18.30;62.80;18.90;99763.00;;;;4989296;28;20202;-45
2022/12/23 10:05:38;;;;;;;5.07;2.30;;;18.30;62.80;18.90;99747.00;;;;5005308;28;20246;-43
2022/12/23 10:08:32;;;;;;;3.00;2.20;;;18.20;62.70;18.90;99747.00;;;;5004809;28;20198;-45
2022/12/23 10:11:19;;;;;;;5.83;2.43;;;18.10;62.60;18.90;99730.00;;;;4993656;28;20204;-44
2022/12/23 10:13:52;;;;;;;4.13;2.40;;;18.20;63.10;18.90;99740.00;;;;4976746;28;20180;-44
2022/12/23 10:16:31;;;;;;;8.07;2.20;;;18.10;63.00;18.90;99742.00;;;;4981553;28;20196;-45
2022/12/23 10:19:14;;;;;;;3.03;2.20;;;18.10;63.00;18.80;99662.00;;;;5005296;28;20242;-45
2022/12/23 10:21:42;;;;;;;5.30;2.20;;;18.00;62.90;18.80;99735.00;;;;4992444;28;20205;-44
2022/12/23 10:24:25;;;;;;;5.40;2.40;;;18.00;63.00;18.80;99668.00;;;;5012837;28;20183;-44
2022/12/23 10:27:01;;;;;;;4.77;2.00;;;18.00;63.00;18.80;99681.00;;;;4988467;28;20198;-43
2022/12/23 10:29:31;;;;;;;4.20;2.40;;;18.00;63.10;18.80;99717.00;;;;4988555;28;20694;-45
2022/12/23 10:32:16;;;;;;;3.63;2.23;;;17.90;63.00;18.80;99635.00;;;;5009137;28;20195;-44
2022/12/23 10:34:44;;;;;;;5.30;2.20;;;17.90;63.20;18.70;99691.00;;;;5020272;28;20178;-45
2022/12/23 10:37:31;;;;;;;2.97;2.20;;;17.80;63.30;18.70;99687.00;;;;5028013;28;20187;-45
2022/12/23 10:40:32;;;;;;;3.93;2.13;;;17.80;63.30;18.70;99694.00;;;;5029001;28;20179;-45
2022/12/23 10:43:21;;;;;;;5.97;2.10;;;17.80;63.40;18.70;99591.00;;;;5006315;28;20177;-44
2022/12/23 10:46:18;;;;;;;2.90;2.00;;;17.80;63.40;18.70;99682.00;;;;4990792;28;20606;-45
2022/12/23 10:49:11;;;;;;;3.47;2.20;;;17.80;63.50;18.60;99676.00;;;;4992354;28;20188;-44
2022/12/23 10:51:59;;;;;;;5.80;2.90;;;17.80;63.30;18.60;99606.00;;;;5001602;28;20215;-48
2022/12/23 10:54:31;;;;;;;11.03;2.80;;;17.80;64.70;18.60;99665.00;;;;4997014;28;20179;-47
2022/12/23 10:56:57;;;;;;;4.70;2.40;;;17.80;63.80;18.60;99661.00;;;;4993512;28;20178;-47
2022/12/23 10:59:27;;;;;;;8.07;2.50;;;17.80;63.80;18.60;99654.00;;;;5009130;28;20528;-47
2022/12/23 11:03:00;;;;;;;4.63;2.37;;;17.80;63.80;18.60;99661.00;;;;5007488;28;20199;-47
2022/12/23 11:05:27;;;;;;;3.33;2.17;;;17.80;63.70;18.60;99585.00;;;;5001678;28;20193;-47
2022/12/23 11:07:52;;;;;;;4.50;2.20;;;17.80;63.70;18.60;99667.00;;;;4997591;28;20262;-46
2022/12/23 11:10:21;;;;;;;3.57;2.20;;;17.70;63.90;18.60;99661.00;;;;4988619;28;20569;-47
2022/12/23 11:12:49;;;;;;;5.43;2.30;;;17.70;64.10;18.50;99654.00;;;;5004660;28;20209;-46
2022/12/23 11:15:35;;;;;;;5.70;2.40;;;17.70;64.20;18.60;99661.00;;;;5008545;28;20779;-47
2022/12/23 11:18:10;;;;;;;6.27;2.07;;;17.70;64.30;18.50;99646.00;;;;5008292;28;20250;-47
2022/12/23 11:20:36;;;;;;;2.80;2.13;;;17.70;64.20;18.50;99644.00;;;;5009518;28;20159;-46
2022/12/23 11:23:03;;;;;;;9.60;2.30;;;17.70;64.20;18.50;99548.00;;;;5006996;28;20625;-48
2022/12/23 11:25:39;;;;;;;2.93;2.17;;;17.80;64.30;18.50;99641.00;;;;5007909;28;20174;-47
2022/12/23 11:28:12;;;;;;;5.83;2.27;;;17.70;64.50;18.50;99632.00;;;;5008807;28;20206;-47
2022/12/23 11:30:44;;;;;;;3.60;1.90;;;17.70;64.60;18.50;99628.00;;;;5008610;28;20712;-46
2022/12/23 11:33:33;;;;;;;3.27;1.90;;;17.70;64.40;18.50;99534.00;;;;5007662;28;20171;-46
2022/12/23 11:36:05;;;;;;;4.97;2.20;;;17.70;64.70;18.50;99619.00;;;;4992872;28;20181;-46
2022/12/23 11:38:31;;;;;;;3.57;2.00;;;17.60;64.80;18.50;99606.00;;;;4990830;28;20716;-46